sensor_id;sensor_type;location;lat;lon;timestamp;P1;durP1;ratioP1;P2;durP2;ratioP2
11931;SDS011;6025;51.368;6.788;2023-08-24T00:02:58;6.70;;;2.72;;
11931;SDS011;6025;51.368;6.788;2023-08-24T00:07:49;3.63;;;2.70;;
11931;SDS011;6025;51.368;6.788;2023-08-24T00:12:43;4.88;;;2.53;;
11931;SDS011;6025;51.368;6.788;2023-08-24T00:17:35;3.08;;;2.47;;
11931;SDS011;6025;51.368;6.788;2023-08-24T00:22:26;4.63;;;2.88;;
11931;SDS011;6025;51.368;6.788;2023-08-24T00:27:18;3.15;;;2.85;;
11931;SDS011;6025;51.368;6.788;2023-08-24T00:32:11;3.47;;;3.00;;
11931;SDS011;6025;51.368;6.788;2023-08-24T00:37:02;4.25;;;3.35;;
11931;SDS011;6025;51.368;6.788;2023-08-24T00:41:54;6.75;;;3.03;;
11931;SDS011;6025;51.368;6.788;2023-08-24T00:46:45;3.90;;;3.03;;
11931;SDS011;6025;51.368;6.788;2023-08-24T00:51:38;4.82;;;2.70;;
11931;SDS011;6025;51.368;6.788;2023-08-24T00:56:31;5.47;;;3.05;;
11931;SDS011;6025;51.368;6.788;2023-08-24T01:01:23;5.55;;;3.17;;
11931;SDS011;6025;51.368;6.788;2023-08-24T01:06:15;4.28;;;3.20;;
11931;SDS011;6025;51.368;6.788;2023-08-24T01:11:09;3.70;;;2.90;;
11931;SDS011;6025;51.368;6.788;2023-08-24T01:16:06;4.43;;;2.92;;
11931;SDS011;6025;51.368;6.788;2023-08-24T01:21:00;5.15;;;3.75;;
11931;SDS011;6025;51.368;6.788;2023-08-24T01:25:52;5.85;;;3.55;;
11931;SDS011;6025;51.368;6.788;2023-08-24T01:30:45;4.60;;;3.30;;
11931;SDS011;6025;51.368;6.788;2023-08-24T01:35:37;4.03;;;2.97;;
11931;SDS011;6025;51.368;6.788;2023-08-24T01:40:31;3.67;;;3.28;;
11931;SDS011;6025;51.368;6.788;2023-08-24T01:45:29;4.50;;;2.80;;
11931;SDS011;6025;51.368;6.788;2023-08-24T01:50:23;4.97;;;2.78;;
11931;SDS011;6025;51.368;6.788;2023-08-24T01:55:17;4.43;;;3.15;;
11931;SDS011;6025;51.368;6.788;2023-08-24T02:00:09;3.70;;;3.30;;
11931;SDS011;6025;51.368;6.788;2023-08-24T02:05:01;5.15;;;3.67;;
11931;SDS011;6025;51.368;6.788;2023-08-24T02:09:54;4.03;;;3.50;;
11931;SDS011;6025;51.368;6.788;2023-08-24T02:14:45;4.28;;;3.70;;
11931;SDS011;6025;51.368;6.788;2023-08-24T02:19:37;4.15;;;3.45;;
11931;SDS011;6025;51.368;6.788;2023-08-24T02:24:28;3.60;;;3.13;;
11931;SDS011;6025;51.368;6.788;2023-08-24T02:29:21;6.15;;;3.42;;
11931;SDS011;6025;51.368;6.788;2023-08-24T02:34:13;4.05;;;2.88;;
11931;SDS011;6025;51.368;6.788;2023-08-24T02:39:04;4.60;;;3.40;;
11931;SDS011;6025;51.368;6.788;2023-08-24T02:43:56;5.32;;;3.10;;
11931;SDS011;6025;51.368;6.788;2023-08-24T02:48:48;3.92;;;3.20;;
11931;SDS011;6025;51.368;6.788;2023-08-24T02:53:40;5.45;;;2.90;;
11931;SDS011;6025;51.368;6.788;2023-08-24T02:58:32;5.10;;;2.92;;
11931;SDS011;6025;51.368;6.788;2023-08-24T03:03:23;7.63;;;3.20;;
11931;SDS011;6025;51.368;6.788;2023-08-24T03:08:16;4.75;;;3.00;;
11931;SDS011;6025;51.368;6.788;2023-08-24T03:13:08;3.67;;;3.10;;
11931;SDS011;6025;51.368;6.788;2023-08-24T03:17:59;3.78;;;2.95;;
11931;SDS011;6025;51.368;6.788;2023-08-24T03:22:51;3.92;;;3.10;;
11931;SDS011;6025;51.368;6.788;2023-08-24T03:27:44;3.63;;;2.75;;
11931;SDS011;6025;51.368;6.788;2023-08-24T03:32:35;3.80;;;2.88;;
11931;SDS011;6025;51.368;6.788;2023-08-24T03:37:27;4.72;;;3.20;;
11931;SDS011;6025;51.368;6.788;2023-08-24T03:42:18;4.50;;;3.20;;
11931;SDS011;6025;51.368;6.788;2023-08-24T03:47:11;4.32;;;2.97;;
11931;SDS011;6025;51.368;6.788;2023-08-24T03:52:03;5.78;;;3.40;;
11931;SDS011;6025;51.368;6.788;2023-08-24T03:56:55;4.80;;;3.17;;
11931;SDS011;6025;51.368;6.788;2023-08-24T04:01:46;4.65;;;2.90;;
11931;SDS011;6025;51.368;6.788;2023-08-24T04:06:39;4.20;;;3.10;;
11931;SDS011;6025;51.368;6.788;2023-08-24T04:11:31;6.03;;;2.95;;
11931;SDS011;6025;51.368;6.788;2023-08-24T04:16:22;4.00;;;3.10;;
11931;SDS011;6025;51.368;6.788;2023-08-24T04:21:14;5.63;;;3.75;;
11931;SDS011;6025;51.368;6.788;2023-08-24T04:26:06;8.18;;;5.10;;
11931;SDS011;6025;51.368;6.788;2023-08-24T04:30:58;9.30;;;4.68;;
11931;SDS011;6025;51.368;6.788;2023-08-24T04:35:49;9.50;;;5.57;;
11931;SDS011;6025;51.368;6.788;2023-08-24T04:40:45;6.47;;;4.18;;
11931;SDS011;6025;51.368;6.788;2023-08-24T04:45:39;5.55;;;4.30;;
11931;SDS011;6025;51.368;6.788;2023-08-24T04:50:30;7.43;;;4.50;;
11931;SDS011;6025;51.368;6.788;2023-08-24T04:55:22;5.55;;;4.07;;
11931;SDS011;6025;51.368;6.788;2023-08-24T05:00:14;6.07;;;3.85;;
11931;SDS011;6025;51.368;6.788;2023-08-24T05:05:08;7.28;;;4.50;;
11931;SDS011;6025;51.368;6.788;2023-08-24T05:10:00;4.68;;;3.58;;
11931;SDS011;6025;51.368;6.788;2023-08-24T05:14:53;5.28;;;3.95;;
11931;SDS011;6025;51.368;6.788;2023-08-24T05:19:45;6.45;;;4.07;;
11931;SDS011;6025;51.368;6.788;2023-08-24T05:24:37;6.07;;;4.38;;
11931;SDS011;6025;51.368;6.788;2023-08-24T05:29:33;7.00;;;4.45;;
11931;SDS011;6025;51.368;6.788;2023-08-24T05:34:25;7.40;;;4.15;;
11931;SDS011;6025;51.368;6.788;2023-08-24T05:39:17;6.47;;;4.10;;
11931;SDS011;6025;51.368;6.788;2023-08-24T05:44:09;5.72;;;4.07;;
11931;SDS011;6025;51.368;6.788;2023-08-24T05:49:01;6.75;;;3.70;;
11931;SDS011;6025;51.368;6.788;2023-08-24T05:53:53;7.85;;;4.20;;
11931;SDS011;6025;51.368;6.788;2023-08-24T05:58:45;8.43;;;3.95;;
11931;SDS011;6025;51.368;6.788;2023-08-24T06:03:38;8.70;;;4.32;;
11931;SDS011;6025;51.368;6.788;2023-08-24T06:08:29;5.95;;;4.22;;
11931;SDS011;6025;51.368;6.788;2023-08-24T06:13:21;6.13;;;4.07;;
11931;SDS011;6025;51.368;6.788;2023-08-24T06:18:13;4.50;;;3.72;;
11931;SDS011;6025;51.368;6.788;2023-08-24T06:23:06;5.10;;;3.83;;
11931;SDS011;6025;51.368;6.788;2023-08-24T06:27:58;5.80;;;3.90;;
11931;SDS011;6025;51.368;6.788;2023-08-24T06:32:50;5.88;;;3.90;;
11931;SDS011;6025;51.368;6.788;2023-08-24T06:37:41;6.55;;;3.90;;
11931;SDS011;6025;51.368;6.788;2023-08-24T06:42:35;5.32;;;3.90;;
11931;SDS011;6025;51.368;6.788;2023-08-24T06:47:26;4.88;;;3.85;;
11931;SDS011;6025;51.368;6.788;2023-08-24T06:52:18;6.25;;;4.10;;
11931;SDS011;6025;51.368;6.788;2023-08-24T06:57:09;7.18;;;5.72;;
11931;SDS011;6025;51.368;6.788;2023-08-24T07:02:02;5.85;;;4.70;;
11931;SDS011;6025;51.368;6.788;2023-08-24T07:06:54;6.97;;;4.32;;
11931;SDS011;6025;51.368;6.788;2023-08-24T07:11:46;5.05;;;4.07;;
11931;SDS011;6025;51.368;6.788;2023-08-24T07:16:37;5.90;;;4.28;;
11931;SDS011;6025;51.368;6.788;2023-08-24T07:21:30;8.73;;;4.25;;
11931;SDS011;6025;51.368;6.788;2023-08-24T07:26:22;6.25;;;3.97;;
11931;SDS011;6025;51.368;6.788;2023-08-24T07:31:15;8.45;;;5.00;;
11931;SDS011;6025;51.368;6.788;2023-08-24T07:36:07;7.68;;;4.53;;
11931;SDS011;6025;51.368;6.788;2023-08-24T07:40:59;5.85;;;4.30;;
11931;SDS011;6025;51.368;6.788;2023-08-24T07:45:51;8.65;;;4.43;;
11931;SDS011;6025;51.368;6.788;2023-08-24T07:50:43;6.40;;;3.75;;
11931;SDS011;6025;51.368;6.788;2023-08-24T07:55:34;5.75;;;3.20;;
11931;SDS011;6025;51.368;6.788;2023-08-24T08:00:27;5.95;;;3.65;;
11931;SDS011;6025;51.368;6.788;2023-08-24T08:05:22;6.32;;;3.50;;
11931;SDS011;6025;51.368;6.788;2023-08-24T08:10:13;4.32;;;3.33;;
11931;SDS011;6025;51.368;6.788;2023-08-24T08:15:07;4.90;;;3.20;;
11931;SDS011;6025;51.368;6.788;2023-08-24T08:20:00;4.15;;;2.67;;
11931;SDS011;6025;51.368;6.788;2023-08-24T08:24:52;4.65;;;2.60;;
11931;SDS011;6025;51.368;6.788;2023-08-24T08:29:46;4.05;;;2.30;;
11931;SDS011;6025;51.368;6.788;2023-08-24T08:34:37;4.35;;;2.50;;
11931;SDS011;6025;51.368;6.788;2023-08-24T08:39:31;2.70;;;2.50;;
11931;SDS011;6025;51.368;6.788;2023-08-24T08:44:23;3.30;;;2.58;;
11931;SDS011;6025;51.368;6.788;2023-08-24T08:49:16;3.40;;;2.50;;
11931;SDS011;6025;51.368;6.788;2023-08-24T08:54:09;2.20;;;2.00;;
11931;SDS011;6025;51.368;6.788;2023-08-24T08:59:02;3.40;;;2.20;;
11931;SDS011;6025;51.368;6.788;2023-08-24T09:03:56;3.55;;;2.30;;
11931;SDS011;6025;51.368;6.788;2023-08-24T09:08:48;2.92;;;2.30;;
11931;SDS011;6025;51.368;6.788;2023-08-24T09:13:40;4.18;;;2.47;;
11931;SDS011;6025;51.368;6.788;2023-08-24T09:18:37;5.43;;;2.70;;
11931;SDS011;6025;51.368;6.788;2023-08-24T09:23:29;3.42;;;2.00;;
11931;SDS011;6025;51.368;6.788;2023-08-24T09:28:22;2.38;;;2.13;;
11931;SDS011;6025;51.368;6.788;2023-08-24T09:33:14;5.28;;;3.00;;
11931;SDS011;6025;51.368;6.788;2023-08-24T09:38:17;2.20;;;2.00;;
11931;SDS011;6025;51.368;6.788;2023-08-24T09:43:12;4.30;;;1.92;;
11931;SDS011;6025;51.368;6.788;2023-08-24T09:48:05;4.93;;;3.53;;
11931;SDS011;6025;51.368;6.788;2023-08-24T09:52:57;3.28;;;2.78;;
11931;SDS011;6025;51.368;6.788;2023-08-24T09:57:52;3.30;;;2.00;;
11931;SDS011;6025;51.368;6.788;2023-08-24T10:02:48;2.88;;;2.05;;
11931;SDS011;6025;51.368;6.788;2023-08-24T10:07:41;2.50;;;2.10;;
11931;SDS011;6025;51.368;6.788;2023-08-24T10:12:41;3.63;;;2.90;;
11931;SDS011;6025;51.368;6.788;2023-08-24T10:17:37;3.78;;;2.15;;
11931;SDS011;6025;51.368;6.788;2023-08-24T10:22:29;4.45;;;2.47;;
11931;SDS011;6025;51.368;6.788;2023-08-24T10:27:21;2.42;;;2.00;;
11931;SDS011;6025;51.368;6.788;2023-08-24T10:32:13;2.70;;;2.10;;
11931;SDS011;6025;51.368;6.788;2023-08-24T10:37:10;4.32;;;2.22;;
11931;SDS011;6025;51.368;6.788;2023-08-24T10:42:02;2.40;;;2.05;;
11931;SDS011;6025;51.368;6.788;2023-08-24T10:47:13;2.92;;;2.30;;
11931;SDS011;6025;51.368;6.788;2023-08-24T10:52:22;3.58;;;2.58;;
11931;SDS011;6025;51.368;6.788;2023-08-24T10:57:18;2.20;;;1.98;;
11931;SDS011;6025;51.368;6.788;2023-08-24T11:02:17;3.47;;;2.40;;
11931;SDS011;6025;51.368;6.788;2023-08-24T11:07:10;3.00;;;2.20;;
11931;SDS011;6025;51.368;6.788;2023-08-24T11:12:08;5.95;;;2.50;;
11931;SDS011;6025;51.368;6.788;2023-08-24T11:17:00;3.20;;;2.15;;
11931;SDS011;6025;51.368;6.788;2023-08-24T11:21:52;3.10;;;2.13;;
11931;SDS011;6025;51.368;6.788;2023-08-24T11:26:45;3.42;;;2.22;;
11931;SDS011;6025;51.368;6.788;2023-08-24T11:31:38;3.33;;;2.10;;
11931;SDS011;6025;51.368;6.788;2023-08-24T11:36:30;3.00;;;2.30;;
11931;SDS011;6025;51.368;6.788;2023-08-24T11:41:22;3.58;;;2.15;;
11931;SDS011;6025;51.368;6.788;2023-08-24T11:46:14;2.38;;;1.90;;
11931;SDS011;6025;51.368;6.788;2023-08-24T11:51:09;3.15;;;2.38;;
11931;SDS011;6025;51.368;6.788;2023-08-24T11:56:02;3.92;;;2.05;;
11931;SDS011;6025;51.368;6.788;2023-08-24T12:00:55;4.10;;;2.38;;
11931;SDS011;6025;51.368;6.788;2023-08-24T12:05:47;3.17;;;2.30;;
11931;SDS011;6025;51.368;6.788;2023-08-24T12:10:42;2.78;;;2.50;;
11931;SDS011;6025;51.368;6.788;2023-08-24T12:15:34;4.63;;;2.60;;
11931;SDS011;6025;51.368;6.788;2023-08-24T12:20:26;3.20;;;2.50;;
11931;SDS011;6025;51.368;6.788;2023-08-24T12:25:17;6.30;;;2.85;;
11931;SDS011;6025;51.368;6.788;2023-08-24T12:30:11;4.25;;;2.63;;
11931;SDS011;6025;51.368;6.788;2023-08-24T12:35:03;3.22;;;2.45;;
11931;SDS011;6025;51.368;6.788;2023-08-24T12:39:56;4.55;;;2.80;;
11931;SDS011;6025;51.368;6.788;2023-08-24T12:44:48;5.30;;;3.10;;
11931;SDS011;6025;51.368;6.788;2023-08-24T12:49:41;6.43;;;5.05;;
11931;SDS011;6025;51.368;6.788;2023-08-24T12:54:32;4.28;;;2.85;;
11931;SDS011;6025;51.368;6.788;2023-08-24T12:59:24;4.28;;;2.85;;
11931;SDS011;6025;51.368;6.788;2023-08-24T13:04:15;3.97;;;2.30;;
11931;SDS011;6025;51.368;6.788;2023-08-24T13:09:08;4.38;;;2.42;;
11931;SDS011;6025;51.368;6.788;2023-08-24T13:14:02;3.63;;;2.20;;
11931;SDS011;6025;51.368;6.788;2023-08-24T13:18:53;4.20;;;2.50;;
11931;SDS011;6025;51.368;6.788;2023-08-24T13:23:45;5.07;;;2.70;;
11931;SDS011;6025;51.368;6.788;2023-08-24T13:28:38;3.63;;;2.80;;
11931;SDS011;6025;51.368;6.788;2023-08-24T13:33:30;4.45;;;2.70;;
11931;SDS011;6025;51.368;6.788;2023-08-24T13:38:21;3.78;;;2.47;;
11931;SDS011;6025;51.368;6.788;2023-08-24T13:43:13;5.35;;;2.83;;
11931;SDS011;6025;51.368;6.788;2023-08-24T13:48:06;6.28;;;4.07;;
11931;SDS011;6025;51.368;6.788;2023-08-24T13:52:58;4.93;;;2.80;;
11931;SDS011;6025;51.368;6.788;2023-08-24T13:57:49;5.45;;;2.60;;
11931;SDS011;6025;51.368;6.788;2023-08-24T14:02:41;3.92;;;2.97;;
11931;SDS011;6025;51.368;6.788;2023-08-24T14:07:34;5.53;;;2.90;;
11931;SDS011;6025;51.368;6.788;2023-08-24T14:12:25;5.50;;;2.90;;
11931;SDS011;6025;51.368;6.788;2023-08-24T14:17:17;5.28;;;3.53;;
11931;SDS011;6025;51.368;6.788;2023-08-24T14:22:08;7.80;;;3.30;;
11931;SDS011;6025;51.368;6.788;2023-08-24T14:27:01;6.65;;;4.57;;
11931;SDS011;6025;51.368;6.788;2023-08-24T14:31:53;6.90;;;3.58;;
11931;SDS011;6025;51.368;6.788;2023-08-24T14:36:44;5.28;;;3.30;;
11931;SDS011;6025;51.368;6.788;2023-08-24T14:41:36;4.75;;;3.33;;
11931;SDS011;6025;51.368;6.788;2023-08-24T14:46:29;6.55;;;3.25;;
11931;SDS011;6025;51.368;6.788;2023-08-24T14:51:20;5.90;;;3.67;;
11931;SDS011;6025;51.368;6.788;2023-08-24T14:56:12;6.40;;;3.35;;
11931;SDS011;6025;51.368;6.788;2023-08-24T15:01:03;3.95;;;2.83;;
11931;SDS011;6025;51.368;6.788;2023-08-24T15:05:59;6.45;;;3.08;;
11931;SDS011;6025;51.368;6.788;2023-08-24T15:10:54;7.22;;;2.88;;
11931;SDS011;6025;51.368;6.788;2023-08-24T15:15:46;4.57;;;3.28;;
11931;SDS011;6025;51.368;6.788;2023-08-24T15:20:38;4.53;;;2.88;;
11931;SDS011;6025;51.368;6.788;2023-08-24T15:25:31;5.97;;;2.55;;
11931;SDS011;6025;51.368;6.788;2023-08-24T15:30:23;5.32;;;2.30;;
11931;SDS011;6025;51.368;6.788;2023-08-24T15:35:15;5.47;;;2.50;;
11931;SDS011;6025;51.368;6.788;2023-08-24T15:40:07;5.13;;;2.10;;
11931;SDS011;6025;51.368;6.788;2023-08-24T15:45:00;5.85;;;2.05;;
11931;SDS011;6025;51.368;6.788;2023-08-24T15:49:52;4.05;;;2.00;;
11931;SDS011;6025;51.368;6.788;2023-08-24T15:54:43;2.78;;;1.90;;
11931;SDS011;6025;51.368;6.788;2023-08-24T15:59:35;4.28;;;2.25;;
11931;SDS011;6025;51.368;6.788;2023-08-24T16:04:28;4.35;;;1.90;;
11931;SDS011;6025;51.368;6.788;2023-08-24T16:09:19;3.75;;;2.25;;
11931;SDS011;6025;51.368;6.788;2023-08-24T16:14:11;3.40;;;2.35;;
11931;SDS011;6025;51.368;6.788;2023-08-24T16:19:02;3.72;;;2.88;;
11931;SDS011;6025;51.368;6.788;2023-08-24T16:23:56;5.18;;;2.38;;
11931;SDS011;6025;51.368;6.788;2023-08-24T16:28:47;4.88;;;2.13;;
11931;SDS011;6025;51.368;6.788;2023-08-24T16:33:40;3.13;;;2.00;;
11931;SDS011;6025;51.368;6.788;2023-08-24T16:38:31;5.13;;;2.40;;
11931;SDS011;6025;51.368;6.788;2023-08-24T16:43:24;3.58;;;2.10;;
11931;SDS011;6025;51.368;6.788;2023-08-24T16:48:16;4.68;;;2.08;;
11931;SDS011;6025;51.368;6.788;2023-08-24T16:53:07;6.45;;;2.30;;
11931;SDS011;6025;51.368;6.788;2023-08-24T16:57:59;5.55;;;2.20;;
11931;SDS011;6025;51.368;6.788;2023-08-24T17:02:52;3.88;;;2.10;;
11931;SDS011;6025;51.368;6.788;2023-08-24T17:08:01;6.95;;;1.92;;
11931;SDS011;6025;51.368;6.788;2023-08-24T17:12:54;3.95;;;2.22;;
11931;SDS011;6025;51.368;6.788;2023-08-24T17:17:46;5.00;;;2.05;;
11931;SDS011;6025;51.368;6.788;2023-08-24T17:22:38;2.97;;;1.50;;
11931;SDS011;6025;51.368;6.788;2023-08-24T17:27:30;3.58;;;1.95;;
11931;SDS011;6025;51.368;6.788;2023-08-24T17:32:22;4.22;;;1.88;;
11931;SDS011;6025;51.368;6.788;2023-08-24T17:37:17;2.47;;;1.63;;
11931;SDS011;6025;51.368;6.788;2023-08-24T17:42:10;5.05;;;2.22;;
11931;SDS011;6025;51.368;6.788;2023-08-24T17:47:01;3.85;;;1.80;;
11931;SDS011;6025;51.368;6.788;2023-08-24T17:51:53;4.07;;;1.88;;
11931;SDS011;6025;51.368;6.788;2023-08-24T17:56:44;3.38;;;1.92;;
11931;SDS011;6025;51.368;6.788;2023-08-24T18:01:37;3.13;;;1.95;;
11931;SDS011;6025;51.368;6.788;2023-08-24T18:06:29;2.33;;;1.83;;
11931;SDS011;6025;51.368;6.788;2023-08-24T18:11:20;2.58;;;2.00;;
11931;SDS011;6025;51.368;6.788;2023-08-24T18:16:12;3.53;;;1.80;;
11931;SDS011;6025;51.368;6.788;2023-08-24T18:21:05;2.17;;;1.60;;
11931;SDS011;6025;51.368;6.788;2023-08-24T18:25:58;4.15;;;2.00;;
11931;SDS011;6025;51.368;6.788;2023-08-24T18:30:55;4.20;;;1.90;;
11931;SDS011;6025;51.368;6.788;2023-08-24T18:35:47;2.47;;;1.83;;
11931;SDS011;6025;51.368;6.788;2023-08-24T18:40:43;4.55;;;2.13;;
11931;SDS011;6025;51.368;6.788;2023-08-24T18:45:36;3.65;;;1.98;;
11931;SDS011;6025;51.368;6.788;2023-08-24T18:50:28;2.55;;;1.88;;
11931;SDS011;6025;51.368;6.788;2023-08-24T18:55:19;3.03;;;1.95;;
11931;SDS011;6025;51.368;6.788;2023-08-24T19:00:13;5.60;;;2.15;;
11931;SDS011;6025;51.368;6.788;2023-08-24T19:05:05;3.65;;;1.70;;
11931;SDS011;6025;51.368;6.788;2023-08-24T19:09:59;3.03;;;1.70;;
11931;SDS011;6025;51.368;6.788;2023-08-24T19:14:50;3.13;;;2.10;;
11931;SDS011;6025;51.368;6.788;2023-08-24T19:19:43;3.92;;;2.05;;
11931;SDS011;6025;51.368;6.788;2023-08-24T19:24:35;3.15;;;2.13;;
11931;SDS011;6025;51.368;6.788;2023-08-24T19:29:26;4.00;;;1.73;;
11931;SDS011;6025;51.368;6.788;2023-08-24T19:34:18;4.65;;;1.90;;
11931;SDS011;6025;51.368;6.788;2023-08-24T19:39:11;3.53;;;1.67;;
11931;SDS011;6025;51.368;6.788;2023-08-24T19:44:02;3.53;;;2.03;;
11931;SDS011;6025;51.368;6.788;2023-08-24T19:48:54;2.97;;;2.10;;
11931;SDS011;6025;51.368;6.788;2023-08-24T19:53:46;4.35;;;2.00;;
11931;SDS011;6025;51.368;6.788;2023-08-24T19:58:39;2.72;;;1.90;;
11931;SDS011;6025;51.368;6.788;2023-08-24T20:03:30;3.10;;;1.90;;
11931;SDS011;6025;51.368;6.788;2023-08-24T20:08:22;6.10;;;2.20;;
11931;SDS011;6025;51.368;6.788;2023-08-24T20:13:15;4.18;;;2.20;;
11931;SDS011;6025;51.368;6.788;2023-08-24T20:18:11;3.92;;;2.00;;
11931;SDS011;6025;51.368;6.788;2023-08-24T20:23:03;2.80;;;1.90;;
11931;SDS011;6025;51.368;6.788;2023-08-24T20:27:54;3.05;;;1.80;;
11931;SDS011;6025;51.368;6.788;2023-08-24T20:32:46;2.70;;;2.00;;
11931;SDS011;6025;51.368;6.788;2023-08-24T20:37:39;3.03;;;1.75;;
11931;SDS011;6025;51.368;6.788;2023-08-24T20:42:30;2.97;;;2.00;;
11931;SDS011;6025;51.368;6.788;2023-08-24T20:47:22;2.97;;;2.08;;
11931;SDS011;6025;51.368;6.788;2023-08-24T20:52:14;3.95;;;2.20;;
11931;SDS011;6025;51.368;6.788;2023-08-24T20:57:07;2.55;;;1.88;;
11931;SDS011;6025;51.368;6.788;2023-08-24T21:01:59;2.95;;;1.92;;
11931;SDS011;6025;51.368;6.788;2023-08-24T21:06:51;3.38;;;2.15;;
11931;SDS011;6025;51.368;6.788;2023-08-24T21:11:42;4.10;;;2.33;;
11931;SDS011;6025;51.368;6.788;2023-08-24T21:16:35;3.20;;;2.00;;
11931;SDS011;6025;51.368;6.788;2023-08-24T21:21:27;3.83;;;2.40;;
11931;SDS011;6025;51.368;6.788;2023-08-24T21:26:18;4.10;;;2.30;;
11931;SDS011;6025;51.368;6.788;2023-08-24T21:31:10;5.60;;;2.50;;
11931;SDS011;6025;51.368;6.788;2023-08-24T21:36:03;4.25;;;2.58;;
11931;SDS011;6025;51.368;6.788;2023-08-24T21:40:55;3.42;;;2.58;;
11931;SDS011;6025;51.368;6.788;2023-08-24T21:45:53;4.30;;;2.60;;
11931;SDS011;6025;51.368;6.788;2023-08-24T21:50:45;4.00;;;2.50;;
11931;SDS011;6025;51.368;6.788;2023-08-24T21:55:38;4.32;;;2.80;;
11931;SDS011;6025;51.368;6.788;2023-08-24T22:00:29;4.40;;;2.85;;
11931;SDS011;6025;51.368;6.788;2023-08-24T22:05:21;3.97;;;2.45;;
11931;SDS011;6025;51.368;6.788;2023-08-24T22:10:12;6.13;;;3.35;;
11931;SDS011;6025;51.368;6.788;2023-08-24T22:15:06;3.40;;;2.72;;
11931;SDS011;6025;51.368;6.788;2023-08-24T22:19:59;3.13;;;2.47;;
11931;SDS011;6025;51.368;6.788;2023-08-24T22:24:50;4.50;;;2.80;;
11931;SDS011;6025;51.368;6.788;2023-08-24T22:29:42;3.25;;;2.50;;
11931;SDS011;6025;51.368;6.788;2023-08-24T22:34:35;3.05;;;2.40;;
11931;SDS011;6025;51.368;6.788;2023-08-24T22:39:27;3.33;;;2.83;;
11931;SDS011;6025;51.368;6.788;2023-08-24T22:44:18;4.35;;;2.42;;
11931;SDS011;6025;51.368;6.788;2023-08-24T22:49:10;2.75;;;2.50;;
11931;SDS011;6025;51.368;6.788;2023-08-24T22:54:02;5.03;;;2.67;;
11931;SDS011;6025;51.368;6.788;2023-08-24T22:58:54;4.53;;;2.60;;
11931;SDS011;6025;51.368;6.788;2023-08-24T23:03:45;3.30;;;2.58;;
11931;SDS011;6025;51.368;6.788;2023-08-24T23:08:37;3.28;;;2.28;;
11931;SDS011;6025;51.368;6.788;2023-08-24T23:13:30;4.30;;;2.47;;
11931;SDS011;6025;51.368;6.788;2023-08-24T23:18:21;2.95;;;2.40;;
11931;SDS011;6025;51.368;6.788;2023-08-24T23:23:13;3.78;;;2.78;;
11931;SDS011;6025;51.368;6.788;2023-08-24T23:28:05;3.22;;;2.60;;
11931;SDS011;6025;51.368;6.788;2023-08-24T23:32:58;4.38;;;2.92;;
11931;SDS011;6025;51.368;6.788;2023-08-24T23:37:50;5.32;;;2.50;;
11931;SDS011;6025;51.368;6.788;2023-08-24T23:42:41;4.63;;;2.95;;
11931;SDS011;6025;51.368;6.788;2023-08-24T23:47:33;3.17;;;2.78;;
11931;SDS011;6025;51.368;6.788;2023-08-24T23:52:26;3.03;;;2.70;;
11931;SDS011;6025;51.368;6.788;2023-08-24T23:57:17;4.07;;;3.03;;
